Elk City-Golden, Idaho
Current Conditions -  °F | °C
As of 12:15 AM on Thursday 18 Dec 2014 (Local Time) from KGIC Reporting Station
Overcast Overcast  
Wind Chill: 30°   Ceiling: 6500
Heat Index: 36°   Visibility: 10mi
Dew Point: 31°   Wind: 8mph
Humidity: 82%   Direction: 50°NE
Pressure: 29.98"   Gusts: NA
Location:  45.82°N, 115.43°W
Report Text: KGIC 180715Z AUTO 05007KT 10SM OVC065 02/00 A2998 RMK AO1 T00231005
Loading
Personal Weather Stations






























Interactive Weather Map New forecast layout! Learn more

10-Day Weather Forecast

Advertisements
Track Severe Weather on mobile